EmailTwitter


Observations de surface / Québec / CYUL (71627)

Régions: Québec | Canada | États-Unis | Europe | France | UK | Ailleurs
Station
Affichage
Infos & localisation pour CYUL (71627) | Aide pour décoder les METARs

Observations prises le 2018-12-15 à 03H00 UTC à MONTREAL INTL A, QB (CYUL)

Etat du ciel: couvert.

Obstacle(s) à la visibilité: faible pluie et brume.

Température: 2.0 Celsius

Point de rosée: 2.0 Celsius

Humidité relative: 100%

Facteur vent: -3.

Vents: Sud à 19 km/h ou 10 noeuds.

Pression au niveau moyen de la mer: 101.86 kilopascals.

Calage altimétrique: 101.83 kilopascals ou 30.07 pouces de mercure.

Visibilité horizontale: 4.00 milles terrestres ou 6.40 kilomètres.

Hauteur du plafond: 792 mètres ( 2600 pieds ).

Observation METAR:

CYUL 150300Z 18010KT 4SM -RA BR FEW007 OVC026 02/02 A3007 RMK SF2SC6 SLP186=